sensor_id;sensor_type;location;lat;lon;timestamp;pressure;altitude;pressure_sealevel;temperature;humidity
71956;BME280;59829;50.562;6.258;2023-06-14T00:06:31;95603.97;;;14.56;67.72
71956;BME280;59829;50.562;6.258;2023-06-14T00:16:33;95599.28;;;14.34;68.25
71956;BME280;59829;50.562;6.258;2023-06-14T00:26:35;95585.63;;;14.15;68.98
71956;BME280;59829;50.562;6.258;2023-06-14T00:36:35;95586.47;;;13.98;69.66
71956;BME280;59829;50.562;6.258;2023-06-14T00:46:35;95595.91;;;13.90;70.00
71956;BME280;59829;50.562;6.258;2023-06-14T00:56:36;95602.50;;;13.74;70.52
71956;BME280;59829;50.562;6.258;2023-06-14T01:17:14;95590.69;;;13.36;71.41
71956;BME280;59829;50.562;6.258;2023-06-14T01:27:17;95584.88;;;13.34;72.31
71956;BME280;59829;50.562;6.258;2023-06-14T01:37:20;95589.13;;;13.16;73.04
71956;BME280;59829;50.562;6.258;2023-06-14T01:47:21;95590.00;;;13.07;73.55
71956;BME280;59829;50.562;6.258;2023-06-14T01:57:23;95591.28;;;12.93;74.31
71956;BME280;59829;50.562;6.258;2023-06-14T02:07:23;95591.06;;;12.77;74.57
71956;BME280;59829;50.562;6.258;2023-06-14T02:17:24;95591.66;;;12.61;75.33
71956;BME280;59829;50.562;6.258;2023-06-14T02:27:25;95598.19;;;12.55;76.11
71956;BME280;59829;50.562;6.258;2023-06-14T02:37:25;95594.28;;;12.42;76.55
71956;BME280;59829;50.562;6.258;2023-06-14T02:47:25;95609.03;;;12.30;77.23
71956;BME280;59829;50.562;6.258;2023-06-14T02:57:26;95606.34;;;12.22;77.77
71956;BME280;59829;50.562;6.258;2023-06-14T03:07:27;95619.59;;;12.17;78.14
71956;BME280;59829;50.562;6.258;2023-06-14T03:17:27;95622.59;;;12.03;78.46
71956;BME280;59829;50.562;6.258;2023-06-14T03:27:30;95630.81;;;11.87;78.82
71956;BME280;59829;50.562;6.258;2023-06-14T03:37:30;95629.41;;;11.73;79.17
71956;BME280;59829;50.562;6.258;2023-06-14T03:47:30;95630.63;;;11.69;79.84
71956;BME280;59829;50.562;6.258;2023-06-14T03:57:31;95636.44;;;11.71;80.42
71956;BME280;59829;50.562;6.258;2023-06-14T04:07:31;95644.41;;;11.68;80.88
71956;BME280;59829;50.562;6.258;2023-06-14T04:17:32;95648.25;;;11.84;81.59
71956;BME280;59829;50.562;6.258;2023-06-14T04:27:35;95641.50;;;11.83;81.91
71956;BME280;59829;50.562;6.258;2023-06-14T04:37:36;95646.91;;;11.99;82.93
71956;BME280;59829;50.562;6.258;2023-06-14T04:47:41;95649.34;;;12.20;83.22
71956;BME280;59829;50.562;6.258;2023-06-14T04:57:42;95654.19;;;12.52;83.59
71956;BME280;59829;50.562;6.258;2023-06-14T05:07:42;95655.19;;;12.78;83.32
71956;BME280;59829;50.562;6.258;2023-06-14T05:17:45;95656.72;;;13.08;82.84
71956;BME280;59829;50.562;6.258;2023-06-14T05:27:53;95664.72;;;13.42;82.15
71956;BME280;59829;50.562;6.258;2023-06-14T05:37:53;95666.13;;;13.82;81.34
71956;BME280;59829;50.562;6.258;2023-06-14T05:47:53;95665.03;;;14.20;80.67
71956;BME280;59829;50.562;6.258;2023-06-14T05:57:54;95660.41;;;14.59;79.69
71956;BME280;59829;50.562;6.258;2023-06-14T06:07:55;95665.50;;;15.03;78.29
71956;BME280;59829;50.562;6.258;2023-06-14T06:17:55;95663.25;;;15.68;77.97
71956;BME280;59829;50.562;6.258;2023-06-14T06:27:56;95678.53;;;16.28;76.43
71956;BME280;59829;50.562;6.258;2023-06-14T06:37:57;95681.81;;;16.71;73.80
71956;BME280;59829;50.562;6.258;2023-06-14T06:47:57;95686.28;;;17.09;71.00
71956;BME280;59829;50.562;6.258;2023-06-14T06:57:58;95691.72;;;17.39;68.22
71956;BME280;59829;50.562;6.258;2023-06-14T07:08:00;95703.75;;;17.63;65.83
71956;BME280;59829;50.562;6.258;2023-06-14T07:18:00;95712.28;;;17.88;64.37
71956;BME280;59829;50.562;6.258;2023-06-14T07:28:00;95710.81;;;18.16;62.67
71956;BME280;59829;50.562;6.258;2023-06-14T07:38:01;95714.53;;;18.45;61.42
71956;BME280;59829;50.562;6.258;2023-06-14T07:48:01;95721.47;;;18.75;60.05
71956;BME280;59829;50.562;6.258;2023-06-14T07:58:02;95721.41;;;18.98;59.19
71956;BME280;59829;50.562;6.258;2023-06-14T08:08:04;95734.34;;;19.21;58.03
71956;BME280;59829;50.562;6.258;2023-06-14T08:18:04;95733.91;;;19.32;57.26
71956;BME280;59829;50.562;6.258;2023-06-14T08:28:04;95736.59;;;19.53;57.11
71956;BME280;59829;50.562;6.258;2023-06-14T08:38:05;95735.91;;;19.60;56.60
71956;BME280;59829;50.562;6.258;2023-06-14T08:48:07;95732.13;;;19.77;55.84
71956;BME280;59829;50.562;6.258;2023-06-14T08:58:07;95736.53;;;19.91;55.52
71956;BME280;59829;50.562;6.258;2023-06-14T09:08:09;95743.63;;;19.97;54.61
71956;BME280;59829;50.562;6.258;2023-06-14T09:18:10;95750.69;;;20.03;54.44
71956;BME280;59829;50.562;6.258;2023-06-14T09:28:11;95736.22;;;20.15;54.13
71956;BME280;59829;50.562;6.258;2023-06-14T09:38:11;95743.91;;;20.24;52.94
71956;BME280;59829;50.562;6.258;2023-06-14T09:48:11;95747.66;;;20.36;51.59
71956;BME280;59829;50.562;6.258;2023-06-14T09:58:19;95746.47;;;20.38;50.20
71956;BME280;59829;50.562;6.258;2023-06-14T10:08:25;95762.88;;;20.39;49.59
71956;BME280;59829;50.562;6.258;2023-06-14T10:18:50;95754.63;;;20.50;49.18
71956;BME280;59829;50.562;6.258;2023-06-14T10:29:08;95766.28;;;20.54;48.28
71956;BME280;59829;50.562;6.258;2023-06-14T10:39:18;95758.84;;;20.72;47.74
71956;BME280;59829;50.562;6.258;2023-06-14T10:49:20;95766.50;;;20.81;46.81
71956;BME280;59829;50.562;6.258;2023-06-14T10:59:36;95757.97;;;20.87;46.17
71956;BME280;59829;50.562;6.258;2023-06-14T11:10:02;95752.50;;;21.03;45.47
71956;BME280;59829;50.562;6.258;2023-06-14T11:20:12;95758.88;;;21.22;45.34
71956;BME280;59829;50.562;6.258;2023-06-14T11:30:16;95753.47;;;21.23;44.94
71956;BME280;59829;50.562;6.258;2023-06-14T11:40:17;95749.00;;;21.39;44.62
71956;BME280;59829;50.562;6.258;2023-06-14T11:50:17;95747.44;;;21.51;44.19
71956;BME280;59829;50.562;6.258;2023-06-14T12:00:18;95752.94;;;21.62;43.52
71956;BME280;59829;50.562;6.258;2023-06-14T12:10:19;95749.38;;;21.70;42.37
71956;BME280;59829;50.562;6.258;2023-06-14T12:20:19;95746.81;;;21.83;41.52
71956;BME280;59829;50.562;6.258;2023-06-14T12:30:22;95740.28;;;22.01;41.14
71956;BME280;59829;50.562;6.258;2023-06-14T12:40:22;95739.38;;;22.15;40.91
71956;BME280;59829;50.562;6.258;2023-06-14T12:50:23;95738.97;;;22.18;40.54
71956;BME280;59829;50.562;6.258;2023-06-14T13:00:23;95734.59;;;22.25;40.16
71956;BME280;59829;50.562;6.258;2023-06-14T13:10:26;95749.69;;;22.49;39.57
71956;BME280;59829;50.562;6.258;2023-06-14T13:20:26;95744.69;;;22.54;39.16
71956;BME280;59829;50.562;6.258;2023-06-14T13:30:26;95751.34;;;22.70;38.98
71956;BME280;59829;50.562;6.258;2023-06-14T13:40:27;95747.94;;;22.70;38.69
71956;BME280;59829;50.562;6.258;2023-06-14T13:50:27;95735.53;;;22.85;38.47
71956;BME280;59829;50.562;6.258;2023-06-14T14:00:27;95735.72;;;22.90;38.56
71956;BME280;59829;50.562;6.258;2023-06-14T14:10:28;95744.78;;;22.94;38.41
71956;BME280;59829;50.562;6.258;2023-06-14T14:20:30;95732.31;;;22.96;38.42
71956;BME280;59829;50.562;6.258;2023-06-14T14:30:30;95731.13;;;22.99;38.52
71956;BME280;59829;50.562;6.258;2023-06-14T14:40:31;95734.13;;;23.02;38.14
71956;BME280;59829;50.562;6.258;2023-06-14T14:50:32;95733.94;;;23.10;38.25
71956;BME280;59829;50.562;6.258;2023-06-14T15:00:33;95743.97;;;23.20;38.40
71956;BME280;59829;50.562;6.258;2023-06-14T15:10:33;95746.75;;;23.25;38.89
71956;BME280;59829;50.562;6.258;2023-06-14T15:20:33;95752.41;;;23.29;38.79
71956;BME280;59829;50.562;6.258;2023-06-14T15:30:34;95749.19;;;23.27;39.03
71956;BME280;59829;50.562;6.258;2023-06-14T15:40:34;95748.00;;;23.29;39.17
71956;BME280;59829;50.562;6.258;2023-06-14T15:50:34;95751.19;;;23.25;39.56
71956;BME280;59829;50.562;6.258;2023-06-14T16:00:36;95741.16;;;23.28;39.43
71956;BME280;59829;50.562;6.258;2023-06-14T16:10:36;95748.56;;;23.25;39.05
71956;BME280;59829;50.562;6.258;2023-06-14T16:20:36;95751.19;;;23.25;39.20
71956;BME280;59829;50.562;6.258;2023-06-14T16:30:37;95751.19;;;23.25;39.22
71956;BME280;59829;50.562;6.258;2023-06-14T16:40:37;95767.66;;;23.25;39.38
71956;BME280;59829;50.562;6.258;2023-06-14T16:50:38;95773.72;;;23.12;39.27
71956;BME280;59829;50.562;6.258;2023-06-14T17:00:38;95782.16;;;23.01;39.11
71956;BME280;59829;50.562;6.258;2023-06-14T17:10:38;95788.59;;;22.92;39.13
71956;BME280;59829;50.562;6.258;2023-06-14T17:20:39;95795.00;;;22.83;39.06
71956;BME280;59829;50.562;6.258;2023-06-14T17:30:39;95791.75;;;22.81;39.18
71956;BME280;59829;50.562;6.258;2023-06-14T17:40:39;95805.38;;;22.63;39.35
71956;BME280;59829;50.562;6.258;2023-06-14T17:50:40;95806.16;;;22.64;39.72
71956;BME280;59829;50.562;6.258;2023-06-14T18:00:40;95819.38;;;22.55;39.86
71956;BME280;59829;50.562;6.258;2023-06-14T18:10:41;95822.97;;;22.41;39.76
71956;BME280;59829;50.562;6.258;2023-06-14T18:20:41;95829.75;;;22.29;40.62
71956;BME280;59829;50.562;6.258;2023-06-14T18:30:42;95851.56;;;22.15;40.41
71956;BME280;59829;50.562;6.258;2023-06-14T18:40:42;95852.53;;;22.07;40.75
71956;BME280;59829;50.562;6.258;2023-06-14T18:50:43;95850.03;;;21.99;41.00
71956;BME280;59829;50.562;6.258;2023-06-14T19:00:45;95862.72;;;21.74;41.32
71956;BME280;59829;50.562;6.258;2023-06-14T19:10:46;95861.78;;;21.54;41.42
71956;BME280;59829;50.562;6.258;2023-06-14T19:20:46;95856.56;;;21.32;41.75
71956;BME280;59829;50.562;6.258;2023-06-14T19:30:47;95868.94;;;21.09;42.18
71956;BME280;59829;50.562;6.258;2023-06-14T19:40:47;95876.22;;;20.77;42.82
71956;BME280;59829;50.562;6.258;2023-06-14T19:50:47;95884.97;;;20.40;43.38
71956;BME280;59829;50.562;6.258;2023-06-14T20:00:49;95892.94;;;19.95;44.74
71956;BME280;59829;50.562;6.258;2023-06-14T20:10:51;95895.97;;;19.46;45.77
71956;BME280;59829;50.562;6.258;2023-06-14T20:20:51;95905.22;;;19.03;46.25
71956;BME280;59829;50.562;6.258;2023-06-14T20:30:51;95920.34;;;18.60;47.68
71956;BME280;59829;50.562;6.258;2023-06-14T20:40:52;95917.88;;;18.19;48.72
71956;BME280;59829;50.562;6.258;2023-06-14T20:50:52;95919.59;;;17.88;49.38
71956;BME280;59829;50.562;6.258;2023-06-14T21:00:53;95928.00;;;17.57;50.48
71956;BME280;59829;50.562;6.258;2023-06-14T21:10:53;95929.59;;;17.34;51.30
71956;BME280;59829;50.562;6.258;2023-06-14T21:20:56;95937.63;;;16.98;52.14
71956;BME280;59829;50.562;6.258;2023-06-14T21:30:56;95944.50;;;16.73;52.95
71956;BME280;59829;50.562;6.258;2023-06-14T21:40:57;95945.34;;;16.48;53.77
71956;BME280;59829;50.562;6.258;2023-06-14T21:50:57;95952.34;;;16.29;55.04
71956;BME280;59829;50.562;6.258;2023-06-14T22:00:58;95956.28;;;16.08;56.54
71956;BME280;59829;50.562;6.258;2023-06-14T22:10:59;95959.69;;;15.82;57.51
71956;BME280;59829;50.562;6.258;2023-06-14T22:21:01;95966.53;;;15.56;58.27
71956;BME280;59829;50.562;6.258;2023-06-14T22:31:02;95954.97;;;15.24;59.36
71956;BME280;59829;50.562;6.258;2023-06-14T22:41:05;95966.00;;;14.99;60.24
71956;BME280;59829;50.562;6.258;2023-06-14T22:51:08;95968.13;;;14.86;61.35
71956;BME280;59829;50.562;6.258;2023-06-14T23:01:10;95962.78;;;14.69;62.49
71956;BME280;59829;50.562;6.258;2023-06-14T23:11:14;95969.75;;;14.59;63.07
71956;BME280;59829;50.562;6.258;2023-06-14T23:21:17;95961.06;;;14.60;63.34
71956;BME280;59829;50.562;6.258;2023-06-14T23:31:17;95961.91;;;14.51;63.38
71956;BME280;59829;50.562;6.258;2023-06-14T23:41:18;95976.59;;;14.41;63.84
71956;BME280;59829;50.562;6.258;2023-06-14T23:51:18;95978.94;;;14.25;64.11
